createdAt,value
2018-07-06T00:02:37.163Z,70.02
2018-07-06T00:05:16.600Z,69.94
2018-07-06T00:07:56.173Z,70.28
2018-07-06T00:10:35.844Z,69.70
2018-07-06T00:13:15.437Z,69.26
2018-07-06T00:15:55.100Z,69.80
2018-07-06T00:18:34.843Z,69.22
2018-07-06T00:21:14.507Z,70.04
2018-07-06T00:23:54.251Z,70.14
2018-07-06T00:26:33.737Z,69.44
2018-07-06T00:29:13.494Z,70.08
2018-07-06T00:31:53.180Z,70.03
2018-07-06T00:34:32.650Z,70.34
2018-07-06T00:37:12.168Z,70.30
2018-07-06T00:39:51.812Z,69.43
2018-07-06T00:42:31.421Z,69.16
2018-07-06T00:45:11.037Z,70.67
2018-07-06T00:47:50.618Z,69.83
2018-07-06T00:50:30.385Z,70.24
2018-07-06T00:53:09.995Z,69.80
2018-07-06T00:55:49.444Z,71.37
2018-07-06T00:58:29.171Z,71.02
2018-07-06T01:01:09.060Z,71.15
2018-07-06T01:03:48.682Z,70.55
2018-07-06T01:06:28.193Z,70.14
2018-07-06T01:09:07.773Z,69.72
2018-07-06T01:11:47.275Z,70.86
2018-07-06T01:14:26.912Z,70.04
2018-07-06T01:17:10.566Z,70.17
2018-07-06T01:19:50.150Z,70.39
2018-07-06T01:22:29.777Z,69.73
2018-07-06T01:25:09.318Z,70.33
2018-07-06T01:27:48.676Z,70.93
2018-07-06T01:30:28.234Z,69.53
2018-07-06T01:33:07.741Z,69.92
2018-07-06T01:35:47.473Z,70.43
2018-07-06T01:38:27.056Z,70.82
2018-07-06T01:41:06.543Z,70.23
2018-07-06T01:43:46.413Z,70.29
2018-07-06T01:46:26.121Z,70.73
2018-07-06T01:49:05.678Z,71.70
2018-07-06T01:51:45.223Z,70.66
2018-07-06T01:54:24.805Z,71.31
2018-07-06T01:57:04.309Z,70.84
2018-07-06T01:59:43.886Z,71.25
2018-07-06T02:02:23.381Z,71.03
2018-07-06T02:05:02.894Z,71.36
2018-07-06T02:07:42.347Z,70.78
2018-07-06T02:10:21.852Z,71.82
2018-07-06T02:13:01.398Z,71.47
2018-07-06T02:15:40.931Z,71.37
2018-07-06T02:18:20.296Z,71.12
2018-07-06T02:20:59.774Z,71.62
2018-07-06T02:23:39.169Z,72.65
2018-07-06T02:26:18.852Z,71.94
2018-07-06T02:28:58.462Z,72.10
2018-07-06T02:31:38.011Z,71.50
2018-07-06T02:34:17.381Z,72.31
2018-07-06T02:36:56.838Z,71.77
2018-07-06T02:39:36.317Z,71.32
2018-07-06T02:42:15.790Z,71.21
2018-07-06T02:44:56.534Z,70.73
2018-07-06T02:47:36.023Z,71.93
2018-07-06T02:50:15.548Z,71.30
2018-07-06T02:52:54.983Z,72.37
2018-07-06T02:55:34.444Z,71.57
2018-07-06T02:58:13.965Z,72.20
2018-07-06T03:00:53.455Z,71.50
2018-07-06T03:03:32.861Z,71.28
2018-07-06T03:06:12.297Z,72.04
2018-07-06T03:08:51.881Z,72.39
2018-07-06T03:11:31.562Z,72.06
2018-07-06T03:14:11.052Z,71.99
2018-07-06T03:16:50.614Z,72.53
2018-07-06T03:19:30.109Z,72.34
2018-07-06T03:22:09.556Z,72.07
2018-07-06T03:24:49.017Z,71.72
2018-07-06T03:27:28.539Z,71.49
2018-07-06T03:30:08.120Z,70.50
2018-07-06T03:32:47.768Z,72.33
2018-07-06T03:35:27.301Z,72.68
2018-07-06T03:38:06.960Z,71.84
2018-07-06T03:40:46.367Z,72.10
2018-07-06T03:43:26.075Z,71.68
2018-07-06T03:46:05.564Z,72.01
2018-07-06T03:48:45.192Z,74.28
2018-07-06T03:51:24.740Z,73.76
2018-07-06T03:54:04.271Z,72.03
2018-07-06T03:56:43.851Z,72.75
2018-07-06T03:59:23.366Z,72.54
2018-07-06T04:02:03.036Z,72.82
2018-07-06T04:04:42.617Z,73.08
2018-07-06T04:07:22.344Z,73.15
2018-07-06T04:10:01.801Z,72.80
2018-07-06T04:12:41.355Z,72.77
2018-07-06T04:15:20.845Z,72.37
2018-07-06T04:18:00.265Z,72.22
2018-07-06T04:20:39.962Z,72.62
2018-07-06T04:23:19.556Z,72.42
2018-07-06T04:25:59.020Z,72.49
2018-07-06T04:28:38.669Z,71.96
2018-07-06T04:31:18.307Z,72.76
2018-07-06T04:33:57.912Z,72.53
2018-07-06T04:36:37.481Z,72.45
2018-07-06T04:39:17.136Z,72.14
2018-07-06T04:41:56.758Z,72.74
2018-07-06T04:44:36.425Z,72.41
2018-07-06T04:47:16.004Z,72.20
2018-07-06T04:49:55.460Z,72.16
2018-07-06T04:52:35.711Z,71.90
2018-07-06T04:55:15.145Z,72.76
2018-07-06T04:57:54.818Z,72.88
2018-07-06T05:00:34.517Z,73.45
2018-07-06T05:03:14.079Z,73.28
2018-07-06T05:05:53.465Z,72.99
2018-07-06T05:08:33.307Z,73.82
2018-07-06T05:11:13.056Z,73.69
2018-07-06T05:13:52.600Z,72.53
2018-07-06T05:16:32.219Z,73.17
2018-07-06T05:19:11.877Z,73.63
2018-07-06T05:21:51.492Z,73.29
2018-07-06T05:24:30.950Z,73.37
2018-07-06T05:27:10.477Z,72.96
2018-07-06T05:29:50.085Z,73.55
2018-07-06T05:32:29.716Z,73.22
2018-07-06T05:35:09.369Z,73.66
2018-07-06T05:37:48.920Z,74.40
2018-07-06T05:40:28.416Z,72.71
2018-07-06T05:43:08.138Z,73.20
2018-07-06T05:45:47.821Z,72.39
2018-07-06T05:48:27.489Z,73.35
2018-07-06T05:51:06.988Z,72.07
2018-07-06T05:53:46.521Z,72.09
2018-07-06T05:56:26.087Z,73.06
2018-07-06T05:59:05.629Z,73.18
2018-07-06T06:01:45.020Z,72.91
2018-07-06T06:04:24.550Z,73.79
2018-07-06T06:07:03.980Z,72.87
2018-07-06T06:09:32.759Z,72.63
2018-07-06T06:12:00.930Z,73.44
2018-07-06T06:14:29.200Z,72.68
2018-07-06T06:16:57.433Z,73.37
2018-07-06T06:19:25.723Z,73.27
2018-07-06T06:21:53.994Z,73.25
2018-07-06T06:24:22.343Z,73.90
2018-07-06T06:26:50.623Z,73.12
2018-07-06T06:29:18.867Z,72.74
2018-07-06T06:31:47.060Z,73.44
2018-07-06T06:34:15.197Z,73.12
2018-07-06T06:36:43.400Z,73.35
2018-07-06T06:39:11.613Z,74.38
2018-07-06T06:41:39.816Z,74.61
2018-07-06T06:44:07.980Z,74.02
2018-07-06T06:46:36.512Z,73.82
2018-07-06T06:49:04.798Z,74.07
2018-07-06T06:51:32.954Z,73.81
2018-07-06T06:54:01.129Z,75.18
2018-07-06T06:56:29.333Z,74.65
2018-07-06T06:58:57.639Z,75.45
2018-07-06T07:01:25.781Z,75.63
2018-07-06T07:03:54.079Z,75.83
2018-07-06T07:06:22.289Z,76.88
2018-07-06T07:08:50.566Z,76.66
2018-07-06T07:11:18.820Z,77.77
2018-07-06T07:13:47.121Z,77.05
2018-07-06T07:16:15.345Z,77.16
2018-07-06T07:18:43.668Z,77.53
2018-07-06T07:21:11.886Z,77.64
2018-07-06T07:23:40.175Z,78.29
2018-07-06T07:26:08.384Z,78.77
2018-07-06T07:28:36.588Z,77.13
2018-07-06T07:31:04.799Z,76.91
2018-07-06T07:33:33.075Z,77.22
2018-07-06T07:36:01.306Z,77.38
2018-07-06T07:38:29.532Z,76.91
2018-07-06T07:40:57.709Z,77.96
2018-07-06T07:43:26.087Z,77.31
2018-07-06T07:45:54.284Z,78.58
2018-07-06T07:48:22.589Z,78.99
2018-07-06T07:51:02.558Z,79.90
2018-07-06T07:53:42.445Z,80.03
2018-07-06T07:56:10.733Z,80.56
2018-07-06T07:58:38.900Z,81.06
2018-07-06T08:01:07.360Z,81.64
2018-07-06T08:03:35.510Z,82.47
2018-07-06T08:06:03.826Z,81.90
2018-07-06T08:08:32.047Z,82.68
2018-07-06T08:11:00.275Z,82.61
2018-07-06T08:13:28.555Z,81.74
2018-07-06T08:15:57.586Z,82.46
2018-07-06T08:18:25.855Z,82.58
2018-07-06T08:20:54.161Z,81.96
2018-07-06T08:23:22.425Z,82.30
2018-07-06T08:25:50.724Z,81.69
2018-07-06T08:28:19.929Z,81.25
2018-07-06T08:30:48.356Z,81.68
2018-07-06T08:33:16.837Z,82.53
2018-07-06T08:36:31.622Z,81.24
2018-07-06T08:38:59.939Z,81.48
2018-07-06T08:41:28.113Z,81.66
2018-07-06T08:43:56.311Z,81.99
2018-07-06T08:46:24.539Z,80.79
2018-07-06T08:48:52.815Z,81.70
2018-07-06T08:51:20.970Z,80.75
2018-07-06T08:53:49.166Z,81.25
2018-07-06T08:56:17.337Z,80.72
2018-07-06T08:58:45.580Z,80.99
2018-07-06T09:01:13.840Z,80.63
2018-07-06T09:03:42.107Z,80.38
2018-07-06T09:06:10.415Z,79.73
2018-07-06T09:08:38.577Z,79.32
2018-07-06T09:11:06.850Z,79.03
2018-07-06T09:13:35.091Z,79.15
2018-07-06T09:16:03.529Z,78.38
2018-07-06T09:18:31.653Z,77.39
2018-07-06T09:20:59.960Z,77.20
2018-07-06T09:23:28.164Z,77.04
2018-07-06T09:25:56.885Z,77.37
2018-07-06T09:28:24.707Z,76.45
2018-07-06T09:30:52.932Z,76.39
2018-07-06T09:33:21.085Z,75.47
2018-07-06T09:35:49.328Z,75.58
2018-07-06T09:38:17.574Z,74.33
2018-07-06T09:40:45.793Z,72.49
2018-07-06T09:43:14.153Z,72.16
2018-07-06T09:45:42.346Z,70.98
2018-07-06T09:48:10.528Z,70.84
2018-07-06T09:50:38.793Z,69.56
2018-07-06T09:53:07.032Z,68.01
2018-07-06T09:55:35.357Z,67.08
2018-07-06T09:58:03.561Z,67.09
2018-07-06T10:00:37.006Z,67.18
2018-07-06T10:03:05.260Z,67.10
2018-07-06T10:05:33.487Z,67.46
2018-07-06T10:08:01.676Z,67.25
2018-07-06T10:10:29.835Z,67.45
2018-07-06T10:12:58.054Z,67.68
2018-07-06T10:15:26.361Z,65.30
2018-07-06T10:17:54.596Z,65.33
2018-07-06T10:20:22.853Z,64.50
2018-07-06T10:22:51.029Z,63.36
2018-07-06T10:25:19.257Z,62.80
2018-07-06T10:27:56.318Z,63.08
2018-07-06T10:30:37.656Z,63.79
2018-07-06T10:33:06.419Z,62.07
2018-07-06T10:35:34.616Z,62.20
2018-07-06T10:38:02.864Z,62.03
2018-07-06T10:40:31.049Z,62.39
2018-07-06T10:42:59.268Z,62.18
2018-07-06T10:45:27.505Z,60.85
2018-07-06T10:47:55.808Z,59.13
2018-07-06T10:50:24.252Z,59.29
2018-07-06T10:52:52.557Z,58.73
2018-07-06T10:55:20.724Z,59.79
2018-07-06T10:57:49.058Z,55.71
2018-07-06T11:00:17.268Z,54.95
2018-07-06T11:02:45.498Z,54.89
2018-07-06T11:05:13.697Z,56.05
2018-07-06T11:07:41.913Z,57.71
2018-07-06T11:10:10.204Z,57.10
2018-07-06T11:12:38.473Z,57.81
2018-07-06T11:15:06.693Z,55.68
2018-07-06T11:17:34.975Z,51.61
2018-07-06T11:20:03.195Z,51.27
2018-07-06T11:22:31.395Z,52.20
2018-07-06T11:24:59.587Z,52.42
2018-07-06T11:27:27.747Z,50.87
2018-07-06T11:29:56.021Z,49.12
2018-07-06T11:32:24.249Z,49.32
2018-07-06T11:34:52.554Z,49.59
2018-07-06T11:37:20.793Z,49.69
2018-07-06T11:39:48.981Z,47.66
2018-07-06T11:42:17.175Z,48.81
2018-07-06T11:44:45.474Z,49.19
2018-07-06T11:47:13.724Z,49.17
2018-07-06T11:49:41.884Z,48.52
2018-07-06T11:52:10.263Z,45.54
2018-07-06T11:54:38.450Z,43.55
2018-07-06T11:57:06.722Z,43.10
2018-07-06T11:59:34.889Z,42.64
2018-07-06T12:02:03.207Z,44.26
2018-07-06T12:04:31.404Z,44.18
2018-07-06T12:06:59.626Z,42.91
2018-07-06T12:09:27.828Z,41.63
2018-07-06T12:11:55.995Z,42.75
2018-07-06T12:14:24.157Z,41.57
2018-07-06T12:16:52.375Z,39.59
2018-07-06T12:19:20.522Z,40.92
2018-07-06T12:21:48.792Z,38.69
2018-07-06T12:24:16.960Z,39.36
2018-07-06T12:26:45.128Z,39.50
2018-07-06T12:29:13.386Z,38.18
2018-07-06T12:31:41.518Z,37.46
2018-07-06T12:34:09.690Z,38.42
2018-07-06T12:36:38.277Z,37.79
2018-07-06T12:39:07.002Z,36.98
2018-07-06T12:41:35.204Z,34.48
2018-07-06T12:44:03.439Z,34.73
2018-07-06T12:46:31.659Z,36.39
2018-07-06T12:48:59.976Z,37.45
2018-07-06T12:51:28.378Z,34.91
2018-07-06T12:53:56.635Z,32.15
2018-07-06T12:56:24.876Z,32.34
2018-07-06T12:58:53.095Z,33.74
2018-07-06T13:01:22.005Z,31.68
2018-07-06T13:03:50.165Z,31.69
2018-07-06T13:06:18.357Z,31.04
2018-07-06T13:08:46.560Z,31.14
2018-07-06T13:11:14.749Z,31.83
2018-07-06T13:13:42.898Z,31.54
2018-07-06T13:16:11.052Z,30.32
2018-07-06T13:18:39.256Z,30.89
2018-07-06T13:21:07.429Z,30.56
2018-07-06T13:23:35.603Z,31.08
2018-07-06T13:26:03.762Z,31.35
2018-07-06T13:28:31.977Z,31.62
2018-07-06T13:31:00.205Z,32.13
2018-07-06T13:33:28.531Z,33.76
2018-07-06T13:35:56.646Z,33.63
2018-07-06T13:38:24.993Z,32.65
2018-07-06T13:40:53.166Z,33.12
2018-07-06T13:43:21.370Z,33.05
2018-07-06T13:45:49.549Z,32.90
2018-07-06T13:48:17.773Z,31.76
2018-07-06T13:50:46.130Z,32.66
2018-07-06T13:53:14.328Z,32.35
2018-07-06T13:55:42.592Z,33.52
2018-07-06T13:58:10.862Z,33.47
2018-07-06T14:00:39.046Z,33.89
2018-07-06T14:03:07.256Z,33.72
2018-07-06T14:05:35.707Z,34.44
2018-07-06T14:08:03.887Z,34.20
2018-07-06T14:10:32.112Z,35.21
2018-07-06T14:13:00.305Z,35.00
2018-07-06T14:15:28.520Z,34.91
2018-07-06T14:17:56.775Z,34.02
2018-07-06T14:20:25.009Z,34.31
2018-07-06T14:22:53.282Z,34.69
2018-07-06T14:25:21.531Z,35.74
2018-07-06T14:27:49.747Z,34.62
2018-07-06T14:30:18.158Z,34.78
2018-07-06T14:32:46.393Z,34.19
2018-07-06T14:35:14.615Z,34.33
2018-07-06T14:37:42.837Z,34.91
2018-07-06T14:40:11.007Z,35.31
2018-07-06T14:42:39.213Z,35.38
2018-07-06T14:45:07.465Z,35.71
2018-07-06T14:47:35.707Z,35.81
2018-07-06T14:50:03.948Z,36.02
2018-07-06T14:52:32.993Z,35.91
2018-07-06T14:55:01.134Z,36.31
2018-07-06T14:57:29.305Z,36.11
2018-07-06T14:59:57.498Z,36.74
2018-07-06T15:02:25.793Z,37.15
2018-07-06T15:04:54.060Z,36.03
2018-07-06T15:07:23.024Z,34.71
2018-07-06T15:09:51.171Z,35.26
2018-07-06T15:12:19.382Z,33.83
2018-07-06T15:14:47.571Z,34.03
2018-07-06T15:17:15.756Z,32.98
2018-07-06T15:19:43.949Z,33.61
2018-07-06T15:22:12.216Z,32.83
2018-07-06T15:24:40.699Z,33.38
2018-07-06T15:27:08.835Z,34.14
2018-07-06T15:29:37.009Z,34.43
2018-07-06T15:32:05.222Z,35.70
2018-07-06T15:34:33.440Z,34.46
2018-07-06T15:37:01.634Z,34.02
2018-07-06T15:39:29.927Z,35.88
2018-07-06T15:41:58.135Z,36.41
2018-07-06T15:44:26.383Z,36.58
2018-07-06T15:46:54.596Z,36.94
2018-07-06T15:49:22.853Z,37.17
2018-07-06T15:51:51.065Z,37.54
2018-07-06T15:54:19.334Z,37.39
2018-07-06T15:56:47.632Z,37.71
2018-07-06T15:59:16.177Z,36.97
2018-07-06T16:01:44.358Z,36.37
2018-07-06T16:04:12.575Z,35.97
2018-07-06T16:06:40.771Z,35.99
2018-07-06T16:09:08.934Z,36.24
2018-07-06T16:11:37.112Z,37.19
2018-07-06T16:14:05.397Z,36.53
2018-07-06T16:16:33.616Z,37.53
2018-07-06T16:19:01.777Z,36.06
2018-07-06T16:21:30.197Z,36.88
2018-07-06T16:23:58.437Z,35.99
2018-07-06T16:26:26.842Z,35.89
2018-07-06T16:28:54.992Z,35.72
2018-07-06T16:31:23.173Z,35.51
2018-07-06T16:33:51.375Z,35.74
2018-07-06T16:36:19.640Z,36.56
2018-07-06T16:38:47.779Z,37.10
2018-07-06T16:41:16.219Z,37.97
2018-07-06T16:43:44.518Z,38.49
2018-07-06T16:46:12.787Z,38.02
2018-07-06T16:48:41.032Z,39.20
2018-07-06T16:51:09.198Z,39.27
2018-07-06T16:53:37.338Z,40.05
2018-07-06T16:56:05.553Z,40.24
2018-07-06T16:58:33.820Z,40.32
2018-07-06T17:01:02.076Z,40.04
2018-07-06T17:03:30.236Z,40.90
2018-07-06T17:05:58.446Z,40.80
2018-07-06T17:08:26.761Z,41.26
2018-07-06T17:10:54.964Z,41.70
2018-07-06T17:13:23.232Z,42.72
2018-07-06T17:15:51.497Z,41.83
2018-07-06T17:18:19.794Z,41.50
2018-07-06T17:20:48.017Z,40.68
2018-07-06T17:23:16.198Z,41.42
2018-07-06T17:25:44.474Z,40.51
2018-07-06T17:28:12.750Z,40.62
2018-07-06T17:30:40.928Z,39.07
2018-07-06T17:33:09.223Z,39.76
2018-07-06T17:35:37.522Z,40.05
2018-07-06T17:38:05.773Z,40.99
2018-07-06T17:40:34.021Z,40.27
2018-07-06T17:43:02.213Z,39.06
2018-07-06T17:45:30.467Z,40.34
2018-07-06T17:47:58.639Z,39.94
2018-07-06T17:50:26.946Z,40.06
2018-07-06T17:52:55.152Z,40.98
2018-07-06T17:55:23.471Z,41.85
2018-07-06T17:57:51.754Z,41.33
2018-07-06T18:00:20.917Z,42.62
2018-07-06T18:02:49.126Z,42.54
2018-07-06T18:05:17.413Z,43.31
2018-07-06T18:07:45.649Z,42.89
2018-07-06T18:10:13.939Z,43.57
2018-07-06T18:12:42.265Z,42.93
2018-07-06T18:15:10.551Z,43.95
2018-07-06T18:17:38.815Z,42.99
2018-07-06T18:20:07.028Z,42.92
2018-07-06T18:22:35.279Z,43.30
2018-07-06T18:25:03.504Z,44.66
2018-07-06T18:27:31.668Z,44.90
2018-07-06T18:29:59.834Z,44.59
2018-07-06T18:32:28.356Z,44.41
2018-07-06T18:34:56.613Z,45.62
2018-07-06T18:37:24.869Z,46.35
2018-07-06T18:39:52.992Z,46.45
2018-07-06T18:42:21.207Z,46.36
2018-07-06T18:44:49.372Z,48.93
2018-07-06T18:47:18.626Z,48.11
2018-07-06T18:49:46.785Z,48.26
2018-07-06T18:52:15.045Z,47.14
2018-07-06T18:54:43.389Z,47.47
2018-07-06T18:57:11.538Z,48.27
2018-07-06T18:59:39.836Z,48.54
2018-07-06T19:02:09.962Z,49.91
2018-07-06T19:04:38.151Z,49.57
2018-07-06T19:07:06.344Z,50.64
2018-07-06T19:09:34.727Z,51.27
2018-07-06T19:12:02.984Z,50.52
2018-07-06T19:14:31.258Z,51.38
2018-07-06T19:16:59.825Z,53.23
2018-07-06T19:19:27.997Z,53.23
2018-07-06T19:21:56.240Z,52.95
2018-07-06T19:24:24.399Z,51.77
2018-07-06T19:26:52.674Z,51.54
2018-07-06T19:29:20.878Z,52.17
2018-07-06T19:31:49.082Z,52.19
2018-07-06T19:34:17.297Z,53.46
2018-07-06T19:36:45.543Z,54.90
2018-07-06T19:39:13.752Z,54.65
2018-07-06T19:41:41.997Z,52.93
2018-07-06T19:44:10.230Z,53.72
2018-07-06T19:46:38.595Z,53.91
2018-07-06T19:49:06.872Z,53.23
2018-07-06T19:51:35.044Z,54.08
2018-07-06T19:54:03.244Z,54.91
2018-07-06T19:56:31.485Z,54.09
2018-07-06T19:58:59.749Z,53.48
2018-07-06T20:01:28.074Z,53.99
2018-07-06T20:03:56.297Z,54.16
2018-07-06T20:06:24.562Z,55.11
2018-07-06T20:08:52.785Z,54.90
2018-07-06T20:11:21.018Z,54.18
2018-07-06T20:13:49.643Z,54.91
2018-07-06T20:16:17.953Z,55.10
2018-07-06T20:18:46.269Z,54.31
2018-07-06T20:21:14.456Z,55.54
2018-07-06T20:23:43.250Z,55.24
2018-07-06T20:26:11.428Z,55.18
2018-07-06T20:28:39.672Z,55.47
2018-07-06T20:31:07.859Z,55.65
2018-07-06T20:33:36.203Z,56.29
2018-07-06T20:36:04.628Z,56.52
2018-07-06T20:38:32.830Z,55.78
2018-07-06T20:41:01.051Z,55.64
2018-07-06T20:43:29.262Z,57.67
2018-07-06T20:45:57.465Z,57.54
2018-07-06T20:48:25.645Z,57.05
2018-07-06T20:50:53.880Z,57.29
2018-07-06T20:53:22.218Z,56.87
2018-07-06T20:55:50.495Z,58.05
2018-07-06T20:58:18.861Z,57.70
2018-07-06T21:00:47.121Z,58.11
2018-07-06T21:03:15.400Z,57.99
2018-07-06T21:05:43.581Z,57.52
2018-07-06T21:08:12.051Z,57.11
2018-07-06T21:10:40.331Z,57.43
2018-07-06T21:13:08.610Z,58.22
2018-07-06T21:15:36.916Z,58.63
2018-07-06T21:18:05.106Z,58.18
2018-07-06T21:20:33.317Z,58.11
2018-07-06T21:23:01.708Z,58.73
2018-07-06T21:25:29.925Z,58.53
2018-07-06T21:27:58.164Z,58.57
2018-07-06T21:30:26.394Z,59.26
2018-07-06T21:32:54.581Z,58.35
2018-07-06T21:35:22.758Z,58.85
2018-07-06T21:37:50.977Z,59.17
2018-07-06T21:40:19.181Z,59.00
2018-07-06T21:42:47.397Z,58.21
2018-07-06T21:45:15.584Z,58.47
2018-07-06T21:47:43.972Z,59.90
2018-07-06T21:50:12.140Z,59.81
2018-07-06T21:52:40.294Z,60.49
2018-07-06T21:55:08.506Z,60.00
2018-07-06T21:57:36.673Z,60.33
2018-07-06T22:00:05.020Z,61.29
2018-07-06T22:02:33.207Z,60.15
2018-07-06T22:05:01.387Z,60.74
2018-07-06T22:07:30.245Z,60.55
2018-07-06T22:09:58.411Z,59.76
2018-07-06T22:12:26.588Z,60.79
2018-07-06T22:14:54.778Z,60.39
2018-07-06T22:17:23.023Z,60.44
2018-07-06T22:19:51.176Z,60.81
2018-07-06T22:22:19.400Z,61.96
2018-07-06T22:24:47.585Z,61.86
2018-07-06T22:27:15.813Z,60.83
2018-07-06T22:29:43.989Z,60.94
2018-07-06T22:32:12.151Z,62.14
2018-07-06T22:34:40.411Z,62.43
2018-07-06T22:37:08.617Z,61.26
2018-07-06T22:39:36.971Z,61.94
2018-07-06T22:42:05.094Z,62.21
2018-07-06T22:44:33.247Z,63.15
2018-07-06T22:47:01.407Z,64.38
2018-07-06T22:49:29.759Z,63.00
2018-07-06T22:51:57.982Z,62.25
2018-07-06T22:54:26.305Z,63.86
2018-07-06T22:56:54.655Z,63.47
2018-07-06T22:59:22.893Z,63.45
2018-07-06T23:01:51.109Z,63.89
2018-07-06T23:04:19.278Z,63.24
2018-07-06T23:06:47.452Z,63.81
2018-07-06T23:09:15.725Z,63.74
2018-07-06T23:11:43.989Z,63.63
2018-07-06T23:14:12.177Z,63.56
2018-07-06T23:16:40.452Z,64.64
2018-07-06T23:19:08.661Z,64.84
2018-07-06T23:21:36.913Z,64.99
2018-07-06T23:24:05.247Z,64.44
2018-07-06T23:26:33.533Z,64.45
2018-07-06T23:29:01.713Z,65.21
2018-07-06T23:31:29.938Z,65.35
2018-07-06T23:33:58.270Z,66.29
2018-07-06T23:36:26.475Z,66.60
2018-07-06T23:38:54.791Z,66.01
2018-07-06T23:41:22.976Z,65.96
2018-07-06T23:43:51.134Z,66.75
2018-07-06T23:46:19.339Z,66.70
2018-07-06T23:48:47.655Z,67.01
2018-07-06T23:51:15.814Z,66.58
2018-07-06T23:53:44.136Z,66.46
2018-07-06T23:56:12.392Z,67.43
2018-07-06T23:58:40.641Z,67.24
